createdAt,value
2022-09-28T00:01:16.342Z,2.17
2022-09-28T00:03:44.401Z,2.33
2022-09-28T00:06:15.689Z,2.90
2022-09-28T00:08:44.217Z,2.23
2022-09-28T00:11:15.197Z,2.33
2022-09-28T00:13:43.848Z,2.50
2022-09-28T00:16:15.666Z,2.27
2022-09-28T00:18:45.528Z,2.50
2022-09-28T00:21:15.863Z,2.60
2022-09-28T00:23:58.080Z,2.23
2022-09-28T00:26:26.196Z,2.60
2022-09-28T00:28:54.875Z,2.70
2022-09-28T00:31:25.044Z,3.03
2022-09-28T00:33:53.008Z,2.90
2022-09-28T00:36:20.900Z,2.50
2022-09-28T00:38:48.647Z,2.80
2022-09-28T00:41:16.818Z,2.70
2022-09-28T00:43:44.504Z,2.43
2022-09-28T00:46:18.443Z,2.20
2022-09-28T00:48:55.947Z,2.20
2022-09-28T00:51:25.536Z,2.40
2022-09-28T00:53:56.162Z,2.33
2022-09-28T00:56:27.322Z,2.60
2022-09-28T00:58:55.631Z,2.43
2022-09-28T01:01:23.684Z,2.80
2022-09-28T01:03:53.617Z,2.80
2022-09-28T01:06:23.927Z,2.97
2022-09-28T01:08:54.799Z,3.40
2022-09-28T01:11:22.535Z,3.17
2022-09-28T01:13:53.924Z,3.47
2022-09-28T01:16:32.041Z,3.20
2022-09-28T01:19:19.181Z,3.27
2022-09-28T01:21:53.802Z,3.83
2022-09-28T01:24:41.750Z,3.93
2022-09-28T01:27:21.485Z,4.13
2022-09-28T01:29:56.388Z,4.00
2022-09-28T01:32:33.458Z,3.60
2022-09-28T01:35:06.223Z,3.60
2022-09-28T01:37:40.768Z,3.50
2022-09-28T01:40:11.555Z,3.83
2022-09-28T01:42:44.644Z,4.07
2022-09-28T01:45:19.200Z,4.27
2022-09-28T01:47:49.765Z,4.77
2022-09-28T01:50:21.088Z,4.87
2022-09-28T01:52:54.711Z,4.00
2022-09-28T01:55:29.477Z,4.60
2022-09-28T01:58:04.222Z,4.77
2022-09-28T02:00:33.492Z,4.83
2022-09-28T02:03:05.997Z,4.80
2022-09-28T02:05:36.465Z,4.87
2022-09-28T02:08:09.239Z,4.40
2022-09-28T02:10:42.538Z,4.97
2022-09-28T02:13:17.275Z,4.53
2022-09-28T02:15:51.501Z,5.47
2022-09-28T02:18:19.647Z,5.87
2022-09-28T02:21:02.236Z,5.83
2022-09-28T02:23:36.050Z,6.00
2022-09-28T02:26:08.047Z,6.13
2022-09-28T02:28:37.354Z,3.97
2022-09-28T02:31:05.268Z,2.30
2022-09-28T02:33:37.727Z,2.60
2022-09-28T02:36:05.967Z,2.00
2022-09-28T02:38:34.006Z,2.20
2022-09-28T02:41:06.539Z,2.50
2022-09-28T02:43:46.947Z,1.90
2022-09-28T02:46:29.277Z,1.47
2022-09-28T02:49:22.394Z,1.70
2022-09-28T02:52:05.630Z,1.30
2022-09-28T02:55:08.914Z,0.87
2022-09-28T02:57:48.343Z,1.37
2022-09-28T03:00:20.176Z,1.20
2022-09-28T03:03:02.213Z,1.23
2022-09-28T03:05:37.122Z,1.50
2022-09-28T03:08:12.698Z,1.30
2022-09-28T03:10:46.087Z,1.00
2022-09-28T03:13:16.419Z,0.60
2022-09-28T03:15:48.822Z,0.90
2022-09-28T03:18:17.406Z,0.80
2022-09-28T03:20:45.608Z,1.10
2022-09-28T03:23:24.341Z,0.80
2022-09-28T03:25:52.829Z,0.80
2022-09-28T03:28:21.251Z,1.20
2022-09-28T03:30:51.011Z,0.90
2022-09-28T03:33:19.706Z,1.20
2022-09-28T03:35:48.936Z,1.10
2022-09-28T03:38:16.897Z,1.30
2022-09-28T03:40:45.212Z,1.57
2022-09-28T03:43:13.135Z,1.10
2022-09-28T03:45:40.955Z,0.80
2022-09-28T03:48:10.226Z,0.90
2022-09-28T03:50:37.943Z,1.00
2022-09-28T03:53:05.885Z,1.20
2022-09-28T03:55:33.656Z,1.13
2022-09-28T03:58:01.405Z,1.50
2022-09-28T04:00:29.549Z,1.50
2022-09-28T04:02:57.413Z,1.40
2022-09-28T04:05:26.604Z,1.50
2022-09-28T04:07:57.660Z,1.40
2022-09-28T04:10:25.528Z,1.20
2022-09-28T04:12:55.790Z,1.57
2022-09-28T04:15:24.340Z,2.20
2022-09-28T04:17:52.499Z,1.53
2022-09-28T04:20:20.302Z,1.50
2022-09-28T04:22:49.426Z,1.77
2022-09-28T04:25:17.283Z,1.50
2022-09-28T04:28:02.719Z,1.47
2022-09-28T04:30:30.844Z,1.83
2022-09-28T04:32:58.710Z,1.90
2022-09-28T04:35:26.493Z,2.10
2022-09-28T04:37:55.705Z,2.10
2022-09-28T04:40:23.588Z,2.10
2022-09-28T04:42:56.113Z,2.00
2022-09-28T04:45:26.204Z,1.77
2022-09-28T04:47:54.574Z,1.60
2022-09-28T04:50:22.376Z,1.70
2022-09-28T04:52:50.079Z,1.80
2022-09-28T04:55:20.675Z,2.13
2022-09-28T04:57:48.495Z,1.70
2022-09-28T05:00:17.228Z,1.60
2022-09-28T05:02:45.565Z,1.77
2022-09-28T05:05:13.414Z,1.70
2022-09-28T05:07:41.815Z,1.87
2022-09-28T05:10:09.841Z,2.80
2022-09-28T05:12:39.001Z,1.87
2022-09-28T05:15:07.598Z,1.93
2022-09-28T05:17:35.626Z,1.70
2022-09-28T05:20:03.925Z,1.87
2022-09-28T05:22:31.764Z,2.10
2022-09-28T05:25:00.283Z,2.20
2022-09-28T05:27:28.123Z,2.30
2022-09-28T05:29:57.391Z,1.80
2022-09-28T05:32:25.351Z,2.37
2022-09-28T05:34:53.169Z,1.70
2022-09-28T05:37:21.064Z,1.40
2022-09-28T05:39:48.809Z,1.70
2022-09-28T05:42:16.515Z,1.60
2022-09-28T05:44:44.483Z,2.00
2022-09-28T05:47:13.835Z,1.83
2022-09-28T05:49:42.573Z,1.93
2022-09-28T05:52:10.405Z,1.60
2022-09-28T05:54:38.185Z,1.90
2022-09-28T05:57:06.883Z,1.57
2022-09-28T05:59:36.201Z,2.00
2022-09-28T06:02:05.430Z,2.70
2022-09-28T06:04:34.632Z,1.50
2022-09-28T06:07:02.475Z,1.70
2022-09-28T06:09:31.285Z,1.67
2022-09-28T06:12:00.188Z,1.90
2022-09-28T06:14:28.081Z,2.47
2022-09-28T06:16:55.963Z,2.90
2022-09-28T06:19:23.840Z,1.70
2022-09-28T06:21:53.104Z,1.87
2022-09-28T06:24:20.991Z,2.07
2022-09-28T06:26:48.854Z,1.77
2022-09-28T06:29:19.755Z,1.80
2022-09-28T06:31:48.303Z,1.63
2022-09-28T06:34:16.208Z,1.67
2022-09-28T06:36:43.994Z,2.20
2022-09-28T06:39:13.199Z,1.90
2022-09-28T06:41:41.003Z,1.80
2022-09-28T06:44:08.864Z,1.57
2022-09-28T06:46:39.159Z,1.47
2022-09-28T06:49:09.401Z,1.90
2022-09-28T06:51:37.672Z,1.50
2022-09-28T06:54:05.513Z,1.50
2022-09-28T06:56:34.715Z,1.40
2022-09-28T06:59:02.563Z,1.80
2022-09-28T07:01:30.497Z,1.30
2022-09-28T07:03:58.839Z,1.70
2022-09-28T07:06:26.771Z,1.40
2022-09-28T07:08:59.454Z,1.40
2022-09-28T07:11:41.381Z,1.10
2022-09-28T07:14:13.214Z,1.23
2022-09-28T07:17:08.457Z,1.50
2022-09-28T07:19:31.414Z,1.40
2022-09-28T07:22:04.694Z,1.00
2022-09-28T07:24:33.495Z,1.33
2022-09-28T07:27:05.022Z,1.17
2022-09-28T07:29:32.829Z,1.40
2022-09-28T07:32:00.629Z,1.20
2022-09-28T07:34:28.495Z,1.00
2022-09-28T07:36:58.070Z,1.10
2022-09-28T07:39:25.899Z,0.90
2022-09-28T07:41:56.664Z,1.10
2022-09-28T07:44:29.679Z,1.37
2022-09-28T07:46:57.636Z,1.30
2022-09-28T07:49:25.422Z,0.90
2022-09-28T07:51:53.238Z,1.03
2022-09-28T07:54:21.074Z,1.20
2022-09-28T07:56:48.895Z,1.20
2022-09-28T07:59:18.702Z,1.33
2022-09-28T08:01:49.420Z,1.30
2022-09-28T08:04:18.542Z,1.40
2022-09-28T08:06:48.251Z,1.20
2022-09-28T08:09:16.161Z,1.20
2022-09-28T08:11:44.705Z,1.20
2022-09-28T08:14:12.506Z,1.20
2022-09-28T08:16:40.358Z,1.33
2022-09-28T08:19:09.739Z,1.30
2022-09-28T08:21:45.782Z,1.20
2022-09-28T08:24:14.731Z,1.23
2022-09-28T08:26:43.355Z,1.20
2022-09-28T08:29:12.090Z,1.10
2022-09-28T08:31:39.874Z,1.10
2022-09-28T08:34:09.304Z,1.07
2022-09-28T08:36:37.073Z,1.10
2022-09-28T08:39:05.142Z,1.00
2022-09-28T08:41:41.526Z,0.80
2022-09-28T08:44:17.034Z,1.20
2022-09-28T08:46:48.748Z,1.17
2022-09-28T08:49:26.527Z,1.00
2022-09-28T08:51:59.950Z,1.00
2022-09-28T08:54:36.730Z,0.90
2022-09-28T08:57:08.493Z,0.70
2022-09-28T08:59:47.591Z,0.90
2022-09-28T09:02:19.167Z,1.03
2022-09-28T09:04:49.131Z,0.90
2022-09-28T09:07:31.720Z,1.10
2022-09-28T09:10:09.954Z,0.80
2022-09-28T09:12:48.318Z,0.97
2022-09-28T09:15:48.758Z,1.10
2022-09-28T09:18:25.682Z,0.60
2022-09-28T09:20:57.473Z,0.60
2022-09-28T09:23:36.918Z,0.83
2022-09-28T09:26:17.535Z,0.77
2022-09-28T09:29:09.512Z,1.10
2022-09-28T09:31:46.424Z,0.70
2022-09-28T09:34:31.491Z,0.70
2022-09-28T09:37:26.868Z,0.60
2022-09-28T09:40:09.136Z,1.00
2022-09-28T09:42:51.383Z,0.70
2022-09-28T09:45:40.961Z,1.00
2022-09-28T09:48:13.794Z,0.77
2022-09-28T09:50:48.465Z,0.83
2022-09-28T09:53:25.461Z,0.60
2022-09-28T09:55:57.422Z,0.80
2022-09-28T09:58:30.882Z,0.80
2022-09-28T10:01:06.796Z,0.60
2022-09-28T10:03:37.750Z,0.60
2022-09-28T10:06:10.370Z,0.70
2022-09-28T10:08:45.297Z,0.80
2022-09-28T10:11:18.459Z,0.60
2022-09-28T10:13:48.428Z,0.60
2022-09-28T10:16:18.881Z,0.97
2022-09-28T10:18:46.780Z,0.87
2022-09-28T10:21:15.439Z,0.77
2022-09-28T10:23:45.695Z,0.60
2022-09-28T10:26:18.068Z,0.53
2022-09-28T10:28:53.041Z,0.70
2022-09-28T10:31:41.990Z,0.60
2022-09-28T10:34:14.064Z,0.70
2022-09-28T10:36:52.247Z,0.70
2022-09-28T10:39:30.386Z,0.67
2022-09-28T10:41:59.802Z,0.90
2022-09-28T10:44:28.475Z,0.60
2022-09-28T10:46:57.667Z,0.63
2022-09-28T10:49:27.003Z,0.60
2022-09-28T10:51:56.218Z,0.60
2022-09-28T10:54:28.111Z,0.80
2022-09-28T10:56:57.345Z,0.63
2022-09-28T10:59:38.175Z,0.53
2022-09-28T11:02:21.346Z,0.60
2022-09-28T11:04:55.724Z,0.67
2022-09-28T11:07:26.727Z,0.63
2022-09-28T11:09:56.817Z,0.57
2022-09-28T11:12:27.194Z,0.50
2022-09-28T11:15:01.179Z,0.73
2022-09-28T11:17:31.061Z,0.50
2022-09-28T11:20:00.776Z,0.67
2022-09-28T11:22:30.833Z,1.57
2022-09-28T11:25:23.636Z,0.90
2022-09-28T11:28:00.775Z,0.87
2022-09-28T11:30:32.924Z,0.70
2022-09-28T11:33:05.953Z,0.80
2022-09-28T11:35:45.392Z,0.60
2022-09-28T11:38:26.432Z,0.60
2022-09-28T11:41:10.071Z,0.70
2022-09-28T11:43:56.276Z,0.60
2022-09-28T11:46:33.342Z,0.60
2022-09-28T11:49:08.470Z,0.80
2022-09-28T11:51:41.556Z,0.67
2022-09-28T11:54:15.903Z,0.70
2022-09-28T11:56:49.156Z,0.60
2022-09-28T11:59:21.887Z,0.80
2022-09-28T12:01:54.476Z,0.67
2022-09-28T12:04:27.471Z,0.77
2022-09-28T12:07:01.130Z,0.60
2022-09-28T12:09:34.075Z,0.60
2022-09-28T12:12:10.363Z,0.70
2022-09-28T12:14:41.658Z,0.60
2022-09-28T12:17:22.122Z,0.50
2022-09-28T12:19:55.293Z,0.90
2022-09-28T12:22:27.855Z,0.63
2022-09-28T12:24:58.520Z,0.50
2022-09-28T12:27:33.562Z,0.70
2022-09-28T12:30:05.991Z,0.70
2022-09-28T12:32:39.335Z,0.60
2022-09-28T12:35:13.352Z,0.90
2022-09-28T12:38:08.729Z,0.93
2022-09-28T12:40:42.299Z,0.80
2022-09-28T12:43:33.896Z,0.67
2022-09-28T12:46:23.712Z,0.80
2022-09-28T12:50:33.316Z,0.80
2022-09-28T13:38:44.649Z,0.70
2022-09-28T13:41:16.247Z,0.60
2022-09-28T13:44:12.984Z,0.70
2022-09-28T13:46:52.392Z,0.73
2022-09-28T13:49:26.864Z,0.70
2022-09-28T13:52:06.255Z,0.60
2022-09-28T13:54:56.493Z,0.60
2022-09-28T13:57:31.705Z,0.70
2022-09-28T14:00:10.416Z,0.60
2022-09-28T14:02:43.242Z,0.80
2022-09-28T14:05:42.329Z,0.60
2022-09-28T14:08:34.613Z,0.80
2022-09-28T14:11:50.286Z,0.63
2022-09-28T14:14:46.450Z,0.70
2022-09-28T14:17:50.418Z,0.60
2022-09-28T14:20:21.291Z,0.73
2022-09-28T14:23:27.827Z,0.60
2022-09-28T14:26:31.298Z,0.87
2022-09-28T14:29:12.772Z,1.07
2022-09-28T14:31:45.263Z,0.70
2022-09-28T14:34:27.160Z,0.57
2022-09-28T14:37:13.120Z,0.63
2022-09-28T14:40:03.769Z,0.70
2022-09-28T14:42:31.791Z,0.87
2022-09-28T14:45:19.981Z,0.60
2022-09-28T14:48:13.569Z,0.63
2022-09-28T14:50:41.502Z,0.80
2022-09-28T14:53:13.748Z,0.70
2022-09-28T14:55:51.148Z,0.63
2022-09-28T14:58:25.100Z,0.63
2022-09-28T15:01:01.016Z,0.80
2022-09-28T15:03:34.011Z,0.80
2022-09-28T15:06:02.714Z,0.73
2022-09-28T15:08:38.535Z,0.60
2022-09-28T15:11:08.128Z,0.80
2022-09-28T15:13:40.715Z,0.60
2022-09-28T15:16:11.973Z,0.70
2022-09-28T15:19:01.452Z,0.60
2022-09-28T15:21:35.702Z,0.70
2022-09-28T15:24:03.832Z,0.80
2022-09-28T15:26:33.764Z,0.50
2022-09-28T15:29:04.109Z,0.60
2022-09-28T15:31:36.420Z,0.70
2022-09-28T15:34:22.829Z,0.60
2022-09-28T15:36:50.792Z,0.40
2022-09-28T15:39:23.199Z,0.60
2022-09-28T15:41:51.988Z,0.80
2022-09-28T15:44:30.146Z,0.90
2022-09-28T15:47:26.491Z,0.67
2022-09-28T15:49:59.087Z,0.90
2022-09-28T15:52:33.912Z,0.70
2022-09-28T15:55:05.149Z,0.60
2022-09-28T15:57:36.939Z,0.70
2022-09-28T16:00:24.778Z,0.60
2022-09-28T16:03:05.551Z,0.90
2022-09-28T16:05:42.842Z,0.93
2022-09-28T16:08:21.510Z,1.20
2022-09-28T16:11:07.948Z,0.90
2022-09-28T16:13:36.620Z,1.00
2022-09-28T16:16:04.633Z,1.13
2022-09-28T16:18:35.648Z,0.90
2022-09-28T16:21:39.868Z,0.80
2022-09-28T16:24:08.466Z,1.10
2022-09-28T16:26:38.909Z,1.20
2022-09-28T16:29:25.711Z,1.10
2022-09-28T16:31:53.830Z,1.30
2022-09-28T16:34:25.731Z,1.60
2022-09-28T16:36:58.596Z,1.13
2022-09-28T16:39:26.464Z,1.13
2022-09-28T16:42:01.795Z,1.10
2022-09-28T16:44:31.772Z,1.10
2022-09-28T16:47:00.938Z,1.43
2022-09-28T16:49:32.145Z,1.20
2022-09-28T16:52:02.363Z,1.10
2022-09-28T16:54:48.106Z,1.50
2022-09-28T16:57:16.536Z,1.57
2022-09-28T16:59:44.337Z,1.17
2022-09-28T17:02:42.346Z,1.47
2022-09-28T17:05:07.002Z,1.00
2022-09-28T17:07:36.271Z,1.20
2022-09-28T17:10:04.425Z,1.60
2022-09-28T17:12:32.202Z,1.10
2022-09-28T17:15:00.269Z,1.13
2022-09-28T17:17:29.852Z,1.20
2022-09-28T17:19:57.655Z,1.30
2022-09-28T17:22:25.683Z,1.20
2022-09-28T17:24:54.897Z,1.30
2022-09-28T17:27:22.684Z,1.53
2022-09-28T17:29:51.386Z,1.30
2022-09-28T17:32:20.287Z,1.67
2022-09-28T17:34:55.770Z,2.50
2022-09-28T17:37:36.126Z,1.60
2022-09-28T17:40:16.572Z,1.63
2022-09-28T17:42:44.505Z,1.70
2022-09-28T17:45:12.601Z,1.93
2022-09-28T17:47:40.766Z,1.90
2022-09-28T17:50:22.369Z,1.77
2022-09-28T17:52:52.495Z,2.03
2022-09-28T17:55:25.202Z,2.00
2022-09-28T17:57:53.170Z,2.03
2022-09-28T18:00:21.152Z,2.10
2022-09-28T18:02:49.066Z,2.10
2022-09-28T18:05:17.030Z,2.20
2022-09-28T18:07:47.743Z,2.77
2022-09-28T18:10:19.545Z,4.00
2022-09-28T18:12:49.309Z,5.17
2022-09-28T18:15:18.236Z,3.83
2022-09-28T18:17:46.210Z,3.97
2022-09-28T18:20:14.822Z,6.70
2022-09-28T18:22:42.831Z,3.70
2022-09-28T18:25:11.195Z,4.00
2022-09-28T18:27:39.120Z,2.87
2022-09-28T18:30:09.387Z,2.73
2022-09-28T18:32:37.894Z,3.47
2022-09-28T18:35:06.745Z,3.37
2022-09-28T18:37:37.351Z,3.13
2022-09-28T18:40:06.018Z,3.57
2022-09-28T18:42:35.548Z,2.93
2022-09-28T18:45:03.905Z,3.63
2022-09-28T18:47:33.493Z,2.40
2022-09-28T18:50:01.748Z,3.70
2022-09-28T18:52:29.577Z,3.60
2022-09-28T18:54:57.461Z,1.80
2022-09-28T18:57:25.502Z,2.30
2022-09-28T18:59:53.583Z,1.93
2022-09-28T19:02:21.722Z,2.10
2022-09-28T19:04:51.088Z,2.80
2022-09-28T19:07:19.142Z,3.53
2022-09-28T19:09:47.042Z,3.43
2022-09-28T19:12:15.647Z,3.30
2022-09-28T19:14:43.553Z,3.80
2022-09-28T19:17:11.924Z,3.30
2022-09-28T19:19:39.774Z,3.33
2022-09-28T19:22:09.140Z,3.50
2022-09-28T19:24:37.119Z,3.67
2022-09-28T19:27:05.249Z,3.10
2022-09-28T19:29:33.252Z,3.20
2022-09-28T19:32:01.039Z,3.30
2022-09-28T19:34:30.126Z,3.00
2022-09-28T19:36:58.416Z,2.40
2022-09-28T19:39:27.585Z,2.60
2022-09-28T19:41:57.546Z,3.60
2022-09-28T19:44:27.676Z,3.10
2022-09-28T19:46:57.531Z,3.00
2022-09-28T19:49:27.312Z,3.20
2022-09-28T19:54:54.362Z,2.80
2022-09-28T19:57:22.562Z,3.63
2022-09-28T19:59:52.671Z,4.07
2022-09-28T20:02:21.883Z,3.50
2022-09-28T20:04:50.038Z,5.33
2022-09-28T20:07:17.915Z,6.30
2022-09-28T20:09:47.144Z,6.03
2022-09-28T20:12:15.128Z,6.03
2022-09-28T20:14:43.099Z,5.87
2022-09-28T20:17:11.131Z,6.87
2022-09-28T20:19:39.109Z,5.33
2022-09-28T20:22:07.381Z,4.00
2022-09-28T20:24:35.339Z,4.43
2022-09-28T20:27:04.646Z,6.10
2022-09-28T20:29:33.206Z,3.80
2022-09-28T20:32:01.927Z,2.80
2022-09-28T20:34:29.840Z,3.37
2022-09-28T20:36:57.887Z,3.00
2022-09-28T20:39:25.892Z,2.87
2022-09-28T20:41:57.339Z,2.70
2022-09-28T20:44:27.101Z,3.13
2022-09-28T20:46:56.219Z,2.80
2022-09-28T20:49:24.361Z,2.73
2022-09-28T20:51:52.261Z,2.57
2022-09-28T20:54:21.598Z,2.83
2022-09-28T20:56:49.535Z,2.73
2022-09-28T20:59:22.900Z,2.90
2022-09-28T21:01:52.362Z,2.60
2022-09-28T21:04:20.568Z,2.40
2022-09-28T21:06:48.594Z,2.53
2022-09-28T21:09:16.429Z,2.90
2022-09-28T21:11:44.317Z,3.20
2022-09-28T21:14:12.203Z,3.10
2022-09-28T21:16:40.185Z,3.30
2022-09-28T21:22:05.343Z,3.20
2022-09-28T21:24:41.278Z,5.30
2022-09-28T21:27:09.172Z,4.03
2022-09-28T21:29:37.136Z,3.20
2022-09-28T21:32:05.945Z,3.43
2022-09-28T21:34:35.962Z,3.90
2022-09-28T21:37:03.709Z,3.40
2022-09-28T21:39:31.696Z,3.03
2022-09-28T21:41:59.648Z,3.10
2022-09-28T21:44:27.515Z,2.87
2022-09-28T21:46:55.360Z,2.50
2022-09-28T21:49:23.152Z,2.80
2022-09-28T21:51:52.868Z,2.70
2022-09-28T21:54:21.294Z,2.53
2022-09-28T21:56:49.070Z,2.70
2022-09-28T21:59:16.839Z,2.67
2022-09-28T22:01:44.613Z,3.60
2022-09-28T22:04:12.399Z,2.90
2022-09-28T22:06:41.563Z,2.43
2022-09-28T22:09:11.421Z,2.80
2022-09-28T22:11:39.399Z,3.10
2022-09-28T22:14:07.715Z,2.90
2022-09-28T22:16:35.667Z,3.07
2022-09-28T22:19:03.837Z,3.50
2022-09-28T22:21:36.919Z,3.30
2022-09-28T22:24:06.970Z,3.57
2022-09-28T22:26:38.191Z,3.37
2022-09-28T22:29:08.306Z,3.17
2022-09-28T22:31:39.328Z,3.20
2022-09-28T22:34:08.031Z,3.00
2022-09-28T22:36:36.510Z,3.13
2022-09-28T22:39:05.642Z,3.00
2022-09-28T22:41:36.442Z,3.17
2022-09-28T22:44:06.383Z,3.80
2022-09-28T22:46:34.398Z,3.80
2022-09-28T22:49:02.714Z,3.87
2022-09-28T22:51:31.367Z,3.83
2022-09-28T22:53:59.720Z,3.80
2022-09-28T22:56:28.123Z,3.90
2022-09-28T22:58:56.245Z,2.50
2022-09-28T23:01:28.051Z,3.17
2022-09-28T23:03:57.450Z,3.43
2022-09-28T23:06:27.824Z,3.73
2022-09-28T23:08:55.946Z,3.50
2022-09-28T23:11:24.392Z,3.53
2022-09-28T23:13:53.646Z,3.50
2022-09-28T23:16:25.462Z,3.97
2022-09-28T23:18:56.220Z,4.17
2022-09-28T23:21:29.202Z,4.07
2022-09-28T23:23:58.604Z,3.80
2022-09-28T23:26:28.981Z,3.63
2022-09-28T23:28:57.787Z,3.70
2022-09-28T23:31:28.169Z,3.40
2022-09-28T23:33:59.797Z,4.07
2022-09-28T23:36:28.528Z,3.70
2022-09-28T23:38:56.870Z,3.63
2022-09-28T23:41:27.257Z,3.50
2022-09-28T23:43:54.987Z,4.00
2022-09-28T23:46:23.186Z,4.20
2022-09-28T23:48:51.277Z,4.00
2022-09-28T23:51:20.958Z,4.30
2022-09-28T23:53:48.957Z,4.20
2022-09-28T23:56:17.907Z,4.13
2022-09-28T23:58:45.777Z,4.40
